createdAt,value
2018-11-01T00:00:14.114Z,98533.88
2018-11-01T00:02:43.246Z,98604.13
2018-11-01T00:05:12.555Z,98603.72
2018-11-01T00:07:41.995Z,98599.39
2018-11-01T00:10:11.271Z,98593.91
2018-11-01T00:12:41.515Z,98601.73
2018-11-01T00:15:12.971Z,98605.09
2018-11-01T00:17:42.261Z,98597.83
2018-11-01T00:20:12.816Z,98612.45
2018-11-01T00:22:42.598Z,98623.35
2018-11-01T00:25:12.839Z,98609.96
2018-11-01T00:27:42.527Z,98622.37
2018-11-01T00:30:11.706Z,98625.23
2018-11-01T00:32:40.874Z,98625.69
2018-11-01T00:35:10.089Z,98626.67
2018-11-01T00:37:39.215Z,98635.61
2018-11-01T00:40:10.541Z,98642.20
2018-11-01T00:42:39.648Z,98635.50
2018-11-01T00:45:10.106Z,98627.93
2018-11-01T00:47:39.305Z,98628.48
2018-11-01T00:50:10.901Z,98622.34
2018-11-01T00:52:40.550Z,98626.32
2018-11-01T00:55:10.864Z,98612.80
2018-11-01T00:57:40.691Z,98612.85
2018-11-01T01:00:12.062Z,98609.38
2018-11-01T01:02:41.235Z,98609.16
2018-11-01T01:05:11.290Z,98604.72
2018-11-01T01:07:40.416Z,98606.92
2018-11-01T01:10:12.979Z,98605.59
2018-11-01T01:12:43.106Z,98592.77
2018-11-01T01:15:12.457Z,98591.91
2018-11-01T01:17:41.583Z,98580.86
2018-11-01T01:20:12.817Z,98591.49
2018-11-01T01:22:42.962Z,98584.04
2018-11-01T01:25:13.487Z,98576.06
2018-11-01T01:27:42.687Z,98569.31
2018-11-01T01:30:15.356Z,98565.55
2018-11-01T01:32:44.949Z,98561.56
2018-11-01T01:35:14.452Z,98554.36
2018-11-01T01:37:43.950Z,98554.59
2018-11-01T01:40:13.160Z,98547.97
2018-11-01T01:42:47.583Z,98554.92
2018-11-01T01:45:16.833Z,98549.80
2018-11-01T01:47:46.006Z,98540.40
2018-11-01T01:50:15.890Z,98538.77
2018-11-01T01:52:45.603Z,98537.63
2018-11-01T01:55:14.791Z,98528.08
2018-11-01T01:57:44.057Z,98527.27
2018-11-01T02:00:15.478Z,98529.05
2018-11-01T02:02:45.987Z,98530.38
2018-11-01T02:05:15.151Z,98528.73
2018-11-01T02:07:44.315Z,98523.88
2018-11-01T02:10:14.652Z,98509.16
2018-11-01T02:12:43.757Z,98515.80
2018-11-01T02:15:15.238Z,98514.69
2018-11-01T02:17:44.830Z,98503.55
2018-11-01T02:20:15.677Z,98508.86
2018-11-01T02:22:45.288Z,98516.20
2018-11-01T02:25:14.462Z,98519.06
2018-11-01T02:27:48.976Z,98523.80
2018-11-01T02:30:18.800Z,98518.38
2018-11-01T02:32:48.032Z,98523.68
2018-11-01T02:35:18.333Z,98513.80
2018-11-01T02:37:47.598Z,98514.39
2018-11-01T02:40:17.144Z,98515.27
2018-11-01T02:42:46.352Z,98509.03
2018-11-01T02:45:16.065Z,98514.55
2018-11-01T02:47:45.205Z,98535.02
2018-11-01T02:50:14.866Z,98538.84
2018-11-01T02:52:44.055Z,98541.80
2018-11-01T02:55:13.150Z,98545.54
2018-11-01T02:57:42.307Z,98545.78
2018-11-01T03:00:13.100Z,98547.98
2018-11-01T03:02:42.265Z,98549.88
2018-11-01T03:05:12.710Z,98552.23
2018-11-01T03:07:42.032Z,98553.29
2018-11-01T03:10:12.765Z,98559.11
2018-11-01T03:12:42.137Z,98561.77
2018-11-01T03:15:14.326Z,98544.36
2018-11-01T03:17:43.479Z,98563.27
2018-11-01T03:20:13.313Z,98550.66
2018-11-01T03:22:42.533Z,98558.12
2018-11-01T03:25:11.942Z,98541.65
2018-11-01T03:27:41.072Z,98544.34
2018-11-01T03:30:10.655Z,98545.51
2018-11-01T03:32:39.948Z,98548.53
2018-11-01T03:35:10.094Z,98543.02
2018-11-01T03:37:39.243Z,98535.52
2018-11-01T03:40:09.502Z,98545.37
2018-11-01T03:42:39.167Z,98542.48
2018-11-01T03:45:09.602Z,98535.34
2018-11-01T03:47:38.902Z,98533.30
2018-11-01T03:50:08.297Z,98534.02
2018-11-01T03:52:37.632Z,98529.97
2018-11-01T03:55:08.533Z,98532.56
2018-11-01T03:57:37.650Z,98535.52
2018-11-01T04:00:10.209Z,98533.88
2018-11-01T04:02:39.337Z,98537.86
2018-11-01T04:05:08.661Z,98538.03
2018-11-01T04:07:38.016Z,98550.67
2018-11-01T04:10:08.079Z,98551.42
2018-11-01T04:12:37.344Z,98544.30
2018-11-01T04:15:09.030Z,98555.13
2018-11-01T04:17:38.156Z,98547.87
2018-11-01T04:20:08.509Z,98553.91
2018-11-01T04:22:37.630Z,98540.90
2018-11-01T04:25:07.076Z,98540.90
2018-11-01T04:27:36.209Z,98528.67
2018-11-01T04:30:05.991Z,98519.54
2018-11-01T04:32:35.115Z,98521.54
2018-11-01T04:35:04.281Z,98521.54
2018-11-01T04:37:33.391Z,98506.66
2018-11-01T04:40:02.574Z,98502.86
2018-11-01T04:42:31.700Z,98504.77
2018-11-01T04:45:00.940Z,98522.28
2018-11-01T04:47:30.135Z,98506.39
2018-11-01T04:49:59.161Z,98493.59
2018-11-01T04:52:28.402Z,98489.75
2018-11-01T04:54:57.522Z,98489.25
2018-11-01T04:57:26.619Z,98481.23
2018-11-01T04:59:55.897Z,98471.38
2018-11-01T05:02:24.997Z,98473.89
2018-11-01T05:04:54.162Z,98500.00
2018-11-01T05:07:23.278Z,98499.49
2018-11-01T05:09:52.402Z,98488.59
2018-11-01T05:12:21.565Z,98469.64
2018-11-01T05:14:50.701Z,98460.14
2018-11-01T05:17:19.813Z,98474.47
2018-11-01T05:19:48.959Z,98477.12
2018-11-01T05:22:18.106Z,98480.38
2018-11-01T05:24:47.313Z,98484.92
2018-11-01T05:27:16.353Z,98485.51
2018-11-01T05:29:45.489Z,98486.63
2018-11-01T05:32:14.726Z,98488.16
2018-11-01T05:34:43.894Z,98485.95
2018-11-01T05:37:13.027Z,98484.63
2018-11-01T05:39:42.187Z,98476.41
2018-11-01T05:42:11.359Z,98488.59
2018-11-01T05:44:40.482Z,98489.92
2018-11-01T05:47:09.635Z,98489.92
2018-11-01T05:49:38.758Z,98482.14
2018-11-01T05:52:07.973Z,98480.13
2018-11-01T05:54:37.146Z,98482.78
2018-11-01T05:57:06.366Z,98493.30
2018-11-01T05:59:35.506Z,98499.14
2018-11-01T06:02:36.555Z,98494.35
2018-11-01T06:05:07.046Z,98469.91
2018-11-01T06:07:55.295Z,98464.41
2018-11-01T06:10:24.503Z,98488.30
2018-11-01T06:12:53.616Z,98489.19
2018-11-01T06:15:23.103Z,98479.28
2018-11-01T06:17:52.266Z,98479.12
2018-11-01T06:20:21.455Z,98489.03
2018-11-01T06:22:50.545Z,98487.58
2018-11-01T06:25:19.693Z,98502.00
2018-11-01T06:27:48.874Z,98503.23
2018-11-01T06:30:18.192Z,98499.63
2018-11-01T06:32:47.944Z,98504.77
2018-11-01T06:35:22.120Z,98506.77
2018-11-01T06:37:51.276Z,98508.46
2018-11-01T06:40:20.368Z,98516.82
2018-11-01T06:42:49.504Z,98540.36
2018-11-01T06:45:19.050Z,98552.83
2018-11-01T06:47:48.190Z,98546.57
2018-11-01T06:50:17.400Z,98547.45
2018-11-01T06:52:46.528Z,98544.48
2018-11-01T06:55:15.696Z,98547.27
2018-11-01T06:57:44.828Z,98538.12
2018-11-01T07:00:15.044Z,98544.52
2018-11-01T07:02:44.345Z,98538.66
2018-11-01T07:05:13.462Z,98552.34
2018-11-01T07:07:42.638Z,98555.70
2018-11-01T07:10:14.441Z,98555.40
2018-11-01T07:12:43.568Z,98527.81
2018-11-01T07:15:14.255Z,98526.21
2018-11-01T07:17:43.543Z,98520.35
2018-11-01T07:20:13.969Z,98526.88
2018-11-01T07:22:43.678Z,98537.80
2018-11-01T07:25:14.082Z,98542.34
2018-11-01T07:27:43.200Z,98528.50
2018-11-01T07:30:15.076Z,98530.37
2018-11-01T07:32:44.575Z,98536.53
2018-11-01T07:35:14.280Z,98522.86
2018-11-01T07:37:44.300Z,98517.75
2018-11-01T07:40:14.560Z,98521.91
2018-11-01T07:42:43.709Z,98518.58
2018-11-01T07:45:13.544Z,98525.91
2018-11-01T07:47:43.659Z,98534.94
2018-11-01T07:50:13.701Z,98518.75
2018-11-01T07:52:42.938Z,98528.19
2018-11-01T07:55:13.540Z,98504.80
2018-11-01T07:57:42.740Z,98523.94
2018-11-01T08:00:14.314Z,98512.71
2018-11-01T08:02:44.247Z,98503.03
2018-11-01T08:05:13.667Z,98501.55
2018-11-01T08:07:43.182Z,98512.93
2018-11-01T08:10:18.310Z,98498.52
2018-11-01T08:12:48.227Z,98504.82
2018-11-01T08:15:18.740Z,98508.42
2018-11-01T08:17:47.867Z,98514.23
2018-11-01T08:20:17.823Z,98502.07
2018-11-01T08:22:46.790Z,98496.85
2018-11-01T08:25:16.124Z,98482.19
2018-11-01T08:27:45.419Z,98465.33
2018-11-01T08:30:15.774Z,98456.17
2018-11-01T08:32:44.902Z,98442.00
2018-11-01T08:35:14.228Z,98426.92
2018-11-01T08:37:44.828Z,98420.70
2018-11-01T08:40:14.485Z,98420.58
2018-11-01T08:42:43.817Z,98436.45
2018-11-01T08:45:14.361Z,98438.13
2018-11-01T08:47:43.538Z,98437.94
2018-11-01T08:50:13.997Z,98465.35
2018-11-01T08:52:43.689Z,98482.23
2018-11-01T08:55:13.348Z,98482.02
2018-11-01T08:57:43.616Z,98496.19
2018-11-01T09:00:13.438Z,98508.83
2018-11-01T09:02:43.223Z,98507.66
2018-11-01T09:05:13.273Z,98502.17
2018-11-01T09:07:42.676Z,98511.64
2018-11-01T09:10:13.726Z,98522.48
2018-11-01T09:12:42.923Z,98511.11
2018-11-01T09:15:13.426Z,98514.96
2018-11-01T09:17:42.979Z,98512.91
2018-11-01T09:20:12.704Z,98511.39
2018-11-01T09:22:42.687Z,98502.90
2018-11-01T09:25:11.953Z,98492.22
2018-11-01T09:27:41.078Z,98481.04
2018-11-01T09:30:12.203Z,98476.55
2018-11-01T09:32:41.645Z,98468.77
2018-11-01T09:35:11.740Z,98456.45
2018-11-01T09:37:41.807Z,98455.89
2018-11-01T09:40:12.597Z,98461.95
2018-11-01T09:42:42.211Z,98439.31
2018-11-01T09:45:12.312Z,98431.91
2018-11-01T09:47:41.836Z,98436.25
2018-11-01T09:50:11.452Z,98433.99
2018-11-01T09:52:40.942Z,98424.80
2018-11-01T09:55:10.162Z,98427.73
2018-11-01T09:57:39.318Z,98432.30
2018-11-01T10:00:10.365Z,98429.87
2018-11-01T10:02:39.554Z,98420.11
2018-11-01T10:05:09.754Z,98405.57
2018-11-01T10:07:39.052Z,98390.98
2018-11-01T10:10:10.364Z,98385.86
2018-11-01T10:12:40.046Z,98376.41
2018-11-01T10:15:10.357Z,98391.23
2018-11-01T10:17:39.800Z,98393.72
2018-11-01T10:20:10.633Z,98399.80
2018-11-01T10:22:39.918Z,98394.73
2018-11-01T10:25:11.178Z,98383.97
2018-11-01T10:27:40.405Z,98373.64
2018-11-01T10:30:19.070Z,98384.47
2018-11-01T10:32:48.217Z,98388.64
2018-11-01T10:35:18.298Z,98390.02
2018-11-01T10:37:47.454Z,98374.52
2018-11-01T10:40:18.011Z,98373.67
2018-11-01T10:42:47.183Z,98372.72
2018-11-01T10:45:16.401Z,98361.02
2018-11-01T10:47:45.712Z,98350.13
2018-11-01T10:50:18.374Z,98347.69
2018-11-01T10:52:47.585Z,98358.36
2018-11-01T10:55:16.741Z,98357.55
2018-11-01T10:57:45.885Z,98364.19
2018-11-01T11:00:20.440Z,98365.71
2018-11-01T11:02:50.740Z,98368.50
2018-11-01T11:05:21.074Z,98383.33
2018-11-01T11:07:50.612Z,98374.39
2018-11-01T11:10:20.179Z,98389.77
2018-11-01T11:12:49.317Z,98395.62
2018-11-01T11:15:18.439Z,98396.00
2018-11-01T11:17:47.567Z,98391.36
2018-11-01T11:20:16.949Z,98399.69
2018-11-01T11:22:45.938Z,98391.64
2018-11-01T11:25:15.064Z,98392.33
2018-11-01T11:27:44.239Z,98397.18
2018-11-01T11:30:13.848Z,98386.40
2018-11-01T11:32:43.018Z,98379.25
2018-11-01T11:35:13.041Z,98392.96
2018-11-01T11:37:42.146Z,98388.03
2018-11-01T11:40:12.084Z,98392.32
2018-11-01T11:42:41.408Z,98388.75
2018-11-01T11:45:12.616Z,98396.72
2018-11-01T11:47:42.371Z,98387.86
2018-11-01T11:50:12.766Z,98397.79
2018-11-01T11:52:42.990Z,98405.52
2018-11-01T11:55:12.239Z,98408.22
2018-11-01T11:57:41.369Z,98390.84
2018-11-01T12:00:12.838Z,98375.46
2018-11-01T12:02:42.011Z,98367.44
2018-11-01T12:05:11.544Z,98367.05
2018-11-01T12:07:40.708Z,98367.52
2018-11-01T12:10:11.687Z,98367.13
2018-11-01T12:12:40.826Z,98360.18
2018-11-01T12:15:10.075Z,98353.57
2018-11-01T12:17:39.375Z,98349.36
2018-11-01T12:20:10.496Z,98348.08
2018-11-01T12:22:39.623Z,98349.56
2018-11-01T12:25:09.458Z,98345.91
2018-11-01T12:27:39.035Z,98334.44
2018-11-01T12:30:09.977Z,98328.22
2018-11-01T12:32:39.301Z,98322.89
2018-11-01T12:35:09.464Z,98319.30
2018-11-01T12:37:38.725Z,98318.75
2018-11-01T12:40:09.743Z,98313.80
2018-11-01T12:42:38.889Z,98303.13
2018-11-01T12:45:09.672Z,98310.54
2018-11-01T12:47:38.814Z,98325.20
2018-11-01T12:50:09.972Z,98314.17
2018-11-01T12:52:39.027Z,98314.42
2018-11-01T12:55:08.364Z,98325.98
2018-11-01T12:57:37.624Z,98323.88
2018-11-01T13:00:08.063Z,98323.84
2018-11-01T13:02:37.286Z,98328.52
2018-11-01T13:05:06.421Z,98327.69
2018-11-01T13:07:35.598Z,98338.61
2018-11-01T13:10:05.213Z,98331.17
2018-11-01T13:12:34.542Z,98319.33
2018-11-01T13:15:03.761Z,98323.13
2018-11-01T13:17:32.931Z,98326.23
2018-11-01T13:20:02.098Z,98317.08
2018-11-01T13:22:31.274Z,98322.57
2018-11-01T13:25:00.430Z,98326.64
2018-11-01T13:27:29.568Z,98312.42
2018-11-01T13:29:58.731Z,98312.11
2018-11-01T13:32:27.914Z,98312.73
2018-11-01T13:34:57.230Z,98308.81
2018-11-01T13:37:26.456Z,98285.09
2018-11-01T13:39:55.773Z,98277.20
2018-11-01T13:42:24.777Z,98285.84
2018-11-01T13:44:53.929Z,98275.97
2018-11-01T13:47:23.218Z,98263.67
2018-11-01T13:49:52.329Z,98269.83
2018-11-01T13:52:21.637Z,98270.45
2018-11-01T13:54:50.990Z,98277.08
2018-11-01T13:57:20.146Z,98288.83
2018-11-01T13:59:49.333Z,98297.61
2018-11-01T14:02:18.494Z,98310.02
2018-11-01T14:04:47.638Z,98307.61
2018-11-01T14:07:16.847Z,98309.86
2018-11-01T14:09:46.002Z,98314.98
2018-11-01T14:12:15.168Z,98317.52
2018-11-01T14:14:44.704Z,98329.88
2018-11-01T14:17:13.475Z,98320.84
2018-11-01T14:19:42.631Z,98319.89
2018-11-01T14:22:11.837Z,98325.73
2018-11-01T14:24:40.994Z,98324.60
2018-11-01T14:27:10.360Z,98315.82
2018-11-01T14:29:39.655Z,98321.11
2018-11-01T14:32:08.943Z,98307.95
2018-11-01T14:34:38.153Z,98318.46
2018-11-01T14:37:07.457Z,98322.60
2018-11-01T14:39:36.678Z,98320.88
2018-11-01T14:42:06.178Z,98323.50
2018-11-01T14:44:35.345Z,98323.28
2018-11-01T14:47:04.550Z,98322.30
2018-11-01T14:49:33.690Z,98322.23
2018-11-01T14:52:03.235Z,98324.56
2018-11-01T14:54:33.241Z,98332.27
2018-11-01T14:57:02.863Z,98330.06
2018-11-01T14:59:33.084Z,98330.23
2018-11-01T15:02:00.107Z,98329.02
2018-11-01T15:04:29.672Z,98319.30
2018-11-01T15:06:58.841Z,98314.60
2018-11-01T15:09:28.028Z,98304.61
2018-11-01T15:11:57.193Z,98311.30
2018-11-01T15:14:26.325Z,98305.42
2018-11-01T15:16:55.482Z,98310.38
2018-11-01T15:23:02.423Z,98307.34
2018-11-01T15:25:31.642Z,98325.81
2018-11-01T15:28:00.816Z,98319.70
2018-11-01T15:30:30.186Z,98313.95
2018-11-01T15:32:59.331Z,98312.92
2018-11-01T15:35:28.491Z,98297.52
2018-11-01T15:37:57.782Z,98300.11
2018-11-01T15:40:27.021Z,98305.93
2018-11-01T15:42:56.226Z,98316.87
2018-11-01T15:45:25.501Z,98322.69
2018-11-01T15:47:54.725Z,98319.44
2018-11-01T15:50:24.001Z,98315.99
2018-11-01T15:52:53.272Z,98314.53
2018-11-01T15:55:22.471Z,98299.82
2018-11-01T15:57:51.814Z,98290.34
2018-11-01T16:00:21.045Z,98288.34
2018-11-01T16:02:50.195Z,98296.36
2018-11-01T16:05:19.485Z,98300.24
2018-11-01T16:07:48.667Z,98308.61
2018-11-01T16:10:18.203Z,98316.46
2018-11-01T16:12:47.314Z,98324.25
2018-11-01T16:15:17.272Z,98327.50
2018-11-01T16:17:46.591Z,98345.98
2018-11-01T16:20:15.873Z,98345.09
2018-11-01T16:22:44.951Z,98345.38
2018-11-01T16:25:14.264Z,98345.19
2018-11-01T16:27:43.489Z,98347.73
2018-11-01T16:30:12.797Z,98349.85
2018-11-01T16:32:41.972Z,98343.43
2018-11-01T16:35:11.984Z,98345.00
2018-11-01T16:37:41.274Z,98336.02
2018-11-01T16:40:11.510Z,98333.12
2018-11-01T16:42:40.842Z,98330.58
2018-11-01T16:45:12.237Z,98335.57
2018-11-01T16:47:41.438Z,98339.02
2018-11-01T16:50:11.739Z,98333.09
2018-11-01T16:52:41.891Z,98336.30
2018-11-01T16:55:12.365Z,98333.76
2018-11-01T16:57:41.532Z,98322.66
2018-11-01T17:00:12.085Z,98330.25
2018-11-01T17:02:41.587Z,98331.56
2018-11-01T17:05:11.465Z,98328.05
2018-11-01T17:07:40.770Z,98330.43
2018-11-01T17:10:11.514Z,98320.59
2018-11-01T17:12:40.723Z,98293.65
2018-11-01T17:15:12.782Z,98294.02
2018-11-01T17:17:41.936Z,98299.16
2018-11-01T17:20:11.198Z,98297.59
2018-11-01T17:22:40.666Z,98305.52
2018-11-01T17:25:10.123Z,98307.80
2018-11-01T17:27:39.274Z,98318.84
2018-11-01T17:30:09.631Z,98316.39
2018-11-01T17:32:44.022Z,98303.62
2018-11-01T17:35:13.419Z,98305.62
2018-11-01T17:37:42.665Z,98300.28
2018-11-01T17:40:12.125Z,98290.27
2018-11-01T17:42:41.854Z,98280.25
2018-11-01T17:45:11.961Z,98290.81
2018-11-01T17:47:41.591Z,98296.65
2018-11-01T17:50:12.948Z,98307.41
2018-11-01T17:52:42.693Z,98316.13
2018-11-01T17:55:11.978Z,98319.70
2018-11-01T17:57:41.776Z,98331.67
2018-11-01T18:00:12.630Z,98332.48
2018-11-01T18:02:42.555Z,98329.21
2018-11-01T18:05:12.565Z,98334.02
2018-11-01T18:07:42.278Z,98350.72
2018-11-01T18:10:12.641Z,98336.38
2018-11-01T18:12:41.978Z,98343.00
2018-11-01T18:15:11.892Z,98339.39
2018-11-01T18:17:41.158Z,98348.91
2018-11-01T18:20:11.746Z,98339.14
2018-11-01T18:22:41.069Z,98359.62
2018-11-01T18:25:11.975Z,98357.15
2018-11-01T18:27:41.600Z,98375.32
2018-11-01T18:30:13.049Z,98366.83
2018-11-01T18:32:42.877Z,98357.48
2018-11-01T18:35:12.693Z,98351.20
2018-11-01T18:37:43.067Z,98354.17
2018-11-01T18:40:14.760Z,98368.41
2018-11-01T18:42:43.935Z,98371.86
2018-11-01T18:45:14.164Z,98372.13
2018-11-01T18:47:43.854Z,98376.36
2018-11-01T18:50:14.498Z,98367.36
2018-11-01T18:52:43.663Z,98366.14
2018-11-01T18:55:13.173Z,98365.49
2018-11-01T18:57:42.369Z,98365.61
2018-11-01T19:00:14.329Z,98370.95
2018-11-01T19:02:43.663Z,98369.10
2018-11-01T19:05:13.259Z,98368.26
2018-11-01T19:07:43.153Z,98369.95
2018-11-01T19:10:12.942Z,98367.02
2018-11-01T19:12:42.157Z,98364.53
2018-11-01T19:15:12.646Z,98371.56
2018-11-01T19:17:42.203Z,98376.14
2018-11-01T19:20:12.254Z,98375.30
2018-11-01T19:22:41.526Z,98379.98
2018-11-01T19:25:11.417Z,98377.59
2018-11-01T19:27:40.708Z,98376.25
2018-11-01T19:30:11.574Z,98377.41
2018-11-01T19:32:40.837Z,98379.29
2018-11-01T19:35:11.509Z,98388.23
2018-11-01T19:37:40.880Z,98397.45
2018-11-01T19:40:12.894Z,98398.92
2018-11-01T19:42:42.500Z,98391.55
2018-11-01T19:45:12.379Z,98363.41
2018-11-01T19:47:41.675Z,98391.06
2018-11-01T19:50:12.847Z,98384.72
2018-11-01T19:52:42.170Z,98383.67
2018-11-01T19:55:12.086Z,98374.27
2018-11-01T19:57:41.772Z,98373.42
2018-11-01T20:00:12.944Z,98390.87
2018-11-01T20:02:42.110Z,98375.47
2018-11-01T20:05:11.855Z,98384.84
2018-11-01T20:07:41.063Z,98391.29
2018-11-01T20:10:11.956Z,98400.48
2018-11-01T20:12:41.238Z,98387.41
2018-11-01T20:15:10.613Z,98383.41
2018-11-01T20:17:39.837Z,98389.36
2018-11-01T20:20:10.913Z,98386.18
2018-11-01T20:22:40.700Z,98392.19
2018-11-01T20:25:10.294Z,98400.83
2018-11-01T20:27:39.560Z,98398.66
2018-11-01T20:30:10.890Z,98394.11
2018-11-01T20:32:40.513Z,98388.52
2018-11-01T20:35:11.179Z,98401.19
2018-11-01T20:37:40.560Z,98407.41
2018-11-01T20:40:09.808Z,98406.41
2018-11-01T20:42:39.421Z,98400.03
2018-11-01T20:45:10.041Z,98395.30
2018-11-01T20:47:39.202Z,98403.16
2018-11-01T20:50:09.604Z,98384.41
2018-11-01T20:52:38.834Z,98382.91
2018-11-01T20:55:08.249Z,98383.83
2018-11-01T20:57:37.629Z,98386.67
2018-11-01T21:00:09.007Z,98391.16
2018-11-01T21:02:38.290Z,98399.70
2018-11-01T21:05:07.833Z,98405.80
2018-11-01T21:07:36.995Z,98404.73
2018-11-01T21:10:07.591Z,98411.56
2018-11-01T21:12:37.338Z,98411.95
2018-11-01T21:15:08.291Z,98413.13
2018-11-01T21:17:37.516Z,98421.86
2018-11-01T21:20:06.878Z,98421.23
2018-11-01T21:22:36.022Z,98423.16
2018-11-01T21:25:05.719Z,98429.89
2018-11-01T21:27:34.835Z,98429.91
2018-11-01T21:30:04.161Z,98437.97
2018-11-01T21:32:33.394Z,98445.27
2018-11-01T21:35:02.715Z,98435.97
2018-11-01T21:37:32.132Z,98439.03
2018-11-01T21:40:01.260Z,98435.09
2018-11-01T21:42:30.381Z,98441.61
2018-11-01T21:44:59.662Z,98446.98
2018-11-01T21:47:28.790Z,98444.07
2018-11-01T21:49:57.928Z,98442.23
2018-11-01T21:52:27.094Z,98444.64
2018-11-01T21:54:57.103Z,98449.73
2018-11-01T21:57:26.269Z,98449.75
2018-11-01T21:59:55.402Z,98447.34
2018-11-01T22:02:24.558Z,98450.28
2018-11-01T22:04:53.699Z,98447.62
2018-11-01T22:07:22.891Z,98455.91
2018-11-01T22:09:52.311Z,98457.78
2018-11-01T22:12:21.266Z,98464.49
2018-11-01T22:14:50.418Z,98478.41
2018-11-01T22:17:19.538Z,98480.81
2018-11-01T22:19:48.702Z,98491.80
2018-11-01T22:22:17.873Z,98494.72
2018-11-01T22:24:47.082Z,98501.65
2018-11-01T22:27:16.210Z,98503.78
2018-11-01T22:29:45.402Z,98507.52
2018-11-01T22:32:14.636Z,98511.52
2018-11-01T22:34:43.737Z,98521.91
2018-11-01T22:37:12.875Z,98518.41
2018-11-01T22:39:42.006Z,98521.48
2018-11-01T22:42:11.151Z,98524.38
2018-11-01T22:44:40.288Z,98523.59
2018-11-01T22:47:09.689Z,98530.23
2018-11-01T22:49:38.826Z,98526.19
2018-11-01T22:52:08.561Z,98527.22
2018-11-01T22:54:37.872Z,98540.82
2018-11-01T22:57:07.258Z,98546.38
2018-11-01T22:59:36.420Z,98549.32
2018-11-01T23:02:05.636Z,98551.93
2018-11-01T23:04:34.840Z,98556.16
2018-11-01T23:07:04.101Z,98554.72
2018-11-01T23:09:33.260Z,98554.38
2018-11-01T23:12:02.447Z,98551.40
2018-11-01T23:14:31.610Z,98556.94
2018-11-01T23:17:00.773Z,98572.40
2018-11-01T23:19:29.901Z,98573.44
2018-11-01T23:21:59.037Z,98563.77
2018-11-01T23:24:28.277Z,98564.53
2018-11-01T23:26:57.434Z,98569.89
2018-11-01T23:29:26.574Z,98583.80
2018-11-01T23:31:55.694Z,98578.95
2018-11-01T23:34:24.862Z,98587.73
2018-11-01T23:36:59.168Z,98595.72
2018-11-01T23:39:33.981Z,98594.38
2018-11-01T23:42:08.398Z,98605.31
2018-11-01T23:44:42.760Z,98613.41
2018-11-01T23:52:10.270Z,98631.00
2018-11-01T23:54:39.374Z,98632.20
2018-11-01T23:57:08.664Z,98636.06
2018-11-01T23:59:37.805Z,98638.03
